Announcements

NOTE: You can customize the way the weather site looks by clicking the "Customize" button on the menu, make your selection, and then "Save Your Changes"
from: Nov 19 2018 5:34 pm until: Nov 20 2018 1:00 pm Flood Warning level: Moderate
Possible threat to life or property - Responsive action SHOULD be taken soon (within next hour)


Weather Cam 1 more information Weather Cam 1


Weather Cam 2 more information Weather Cam 2


Visit our other weather sites:

Template documentation
and downloads

And another site


Nearby METAR Reports

   
KMMU - Bloomingdale, New Jersey 07403
Updated: Nov 19 2018 5:45 pm
Mostly Cloudy  
Mostly Cloudy  
   Wind: Calm
Wind: Calm
Temperature: 39.2°F
Dew Point: 37.4°F
Humidity: 93%
Barometer: 30 inHg
Clouds: Mostly Cloudy
Visibility: 10 mi
Cloud details: Partly Cloudy 1524 m,
Mostly Cloudy 4572 m
KMMU 192245Z 00000KT 10SM SCT050 BKN150 04/03 A3000
KTEB - Clifton, New Jersey 07014
Updated: Nov 19 2018 5:51 pm
Few Clouds  
Few Clouds  
   Wind: Calm
Wind: Calm
Temperature: 50°F
Dew Point: 39.2°F
Humidity: 67%
Barometer: 29.99 inHg
Clouds: Few Clouds
Visibility: 9 mi
Cloud details: Few Clouds 1341 m
KTEB 192251Z 00000KT 9SM FEW044 10/04 A2999 RMK AO2 SLP155 T01000039
KFWN - Franklin, New Jersey 07416
Updated: Nov 19 2018 5:53 pm
Overcast  
Overcast  
   Wind: Calm
Wind: Calm
Temperature: 41°F
Dew Point: 35.6°F
Humidity: 81%
Barometer: 30 inHg
Clouds: Overcast
Visibility: 10 mi
Cloud details: Mostly Cloudy 1280 m,
Mostly Cloudy 2134 m,
Overcast 2743 m
KFWN 192253Z AUTO 00000KT 10SM BKN042 BKN070 OVC090 05/02 A3000 RMK AO2 SLP163 T00500017
KFWN - Hamburg, New Jersey 07419
Updated: Nov 19 2018 5:53 pm
Overcast  
Overcast  
   Wind: Calm
Wind: Calm
Temperature: 41°F
Dew Point: 35.6°F
Humidity: 81%
Barometer: 30 inHg
Clouds: Overcast
Visibility: 10 mi
Cloud details: Mostly Cloudy 1280 m,
Mostly Cloudy 2134 m,
Overcast 2743 m
KFWN 192253Z AUTO 00000KT 10SM BKN042 BKN070 OVC090 05/02 A3000 RMK AO2 SLP163 T00500017
KFWN - Highland Lakes, New Jersey 07422
Updated: Nov 19 2018 5:53 pm
Overcast  
Overcast  
   Wind: Calm
Wind: Calm
Temperature: 41°F
Dew Point: 35.6°F
Humidity: 81%
Barometer: 30 inHg
Clouds: Overcast
Visibility: 10 mi
Cloud details: Mostly Cloudy 1280 m,
Mostly Cloudy 2134 m,
Overcast 2743 m
KFWN 192253Z AUTO 00000KT 10SM BKN042 BKN070 OVC090 05/02 A3000 RMK AO2 SLP163 T00500017
KMMU - Hopatcong,New Jersey 07849
Updated: Nov 19 2018 5:45 pm
Mostly Cloudy  
Mostly Cloudy  
   Wind: Calm
Wind: Calm
Temperature: 39.2°F
Dew Point: 37.4°F
Humidity: 93%
Barometer: 30 inHg
Clouds: Mostly Cloudy
Visibility: 10 mi
Cloud details: Partly Cloudy 1524 m,
Mostly Cloudy 4572 m
KMMU 192245Z 00000KT 10SM SCT050 BKN150 04/03 A3000
KFWN - Jefferson, New Jersey 07438
Updated: Nov 19 2018 5:53 pm
Overcast  
Overcast  
   Wind: Calm
Wind: Calm
Temperature: 41°F
Dew Point: 35.6°F
Humidity: 81%
Barometer: 30 inHg
Clouds: Overcast
Visibility: 10 mi
Cloud details: Mostly Cloudy 1280 m,
Mostly Cloudy 2134 m,
Overcast 2743 m
KFWN 192253Z AUTO 00000KT 10SM BKN042 BKN070 OVC090 05/02 A3000 RMK AO2 SLP163 T00500017
KLDJ - Keansburg, New Jersey 07734
Updated: Nov 19 2018 6:35 pm
Clear  
Clear  
   Wind: Calm
Wind: Calm
Temperature: 48.2°F
Dew Point: 41°F
Humidity: 76%
Barometer: 29.99 inHg
Clouds: Clear
Visibility: 10 mi
Cloud details: Clear m
KLDJ 192335Z AUTO 00000KT 10SM CLR 09/05 A2999 RMK AO2 T00910046
KMJX - Lavallette, New Jersey 08735
Updated: Nov 19 2018 5:56 pm
Clear  
Clear  
   Wind: Calm
Wind: Calm
Temperature: 46.4°F
Dew Point: 44.6°F
Humidity: 93%
Barometer: 30 inHg
Clouds: Clear
Visibility: 10 mi
Cloud details: Clear m
KMJX 192256Z AUTO 00000KT 10SM CLR 08/07 A3000 RMK AO2 SLP165 T00830072
KTEB - Little Ferry, New Jersey 07643
Updated: Nov 19 2018 5:51 pm
Few Clouds  
Few Clouds  
   Wind: Calm
Wind: Calm
Temperature: 50°F
Dew Point: 39.2°F
Humidity: 67%
Barometer: 29.99 inHg
Clouds: Few Clouds
Visibility: 9 mi
Cloud details: Few Clouds 1341 m
KTEB 192251Z 00000KT 9SM FEW044 10/04 A2999 RMK AO2 SLP155 T01000039
KTEB - Spring Valley, NY 10977
Updated: Nov 19 2018 5:51 pm
Few Clouds  
Few Clouds  
   Wind: Calm
Wind: Calm
Temperature: 50°F
Dew Point: 39.2°F
Humidity: 67%
Barometer: 29.99 inHg
Clouds: Few Clouds
Visibility: 9 mi
Cloud details: Few Clouds 1341 m
KTEB 192251Z 00000KT 9SM FEW044 10/04 A2999 RMK AO2 SLP155 T01000039
KEWR - Newark, New Jersey 07104
Updated: Nov 19 2018 5:51 pm
Mostly Cloudy  
Mostly Cloudy  
   Wind: Calm
Wind: Calm
Temperature: 48.2°F
Dew Point: 39.2°F
Humidity: 71%
Barometer: 30 inHg
Clouds: Mostly Cloudy
Visibility: 8 mi
Cloud details: Few Clouds 1280 m,
Partly Cloudy 2134 m,
Mostly Cloudy 7620 m
KEWR 192251Z 00000KT 8SM FEW042 SCT070 BKN250 09/04 A3000 RMK AO2 SLP157 T00940044
KMMU - Newfoundland, New Jersey 07435
Updated: Nov 19 2018 5:45 pm
Mostly Cloudy  
Mostly Cloudy  
   Wind: Calm
Wind: Calm
Temperature: 39.2°F
Dew Point: 37.4°F
Humidity: 93%
Barometer: 30 inHg
Clouds: Mostly Cloudy
Visibility: 10 mi
Cloud details: Partly Cloudy 1524 m,
Mostly Cloudy 4572 m
KMMU 192245Z 00000KT 10SM SCT050 BKN150 04/03 A3000
KLGA - Yonkers, New York 10710
Updated: Nov 19 2018 5:51 pm
Mostly Cloudy  
Mostly Cloudy  
   Wind: East 5.8 mph
Wind: East 5.8 mph
Temperature: 50°F
Wind Chill: 48.2°F
Dew Point: 37.4°F
Humidity: 62%
Barometer: 30 inHg
Clouds: Mostly Cloudy
Visibility: 10 mi
Cloud details: Few Clouds 2134 m,
Partly Cloudy 4572 m,
Mostly Cloudy 7620 m
KLGA 192251Z 10005KT 10SM FEW070 SCT150 BKN250 10/03 A3000 RMK AO2 SLP158 T01000033
 

Script developed by  Saratoga-weather.org Adapted for the template by  Weerstation Leuven

You find our weather info also at:

Weather Underground

Citizen Weather Observer Program (CWOP)

Equipment we use:

Weather-station
Davis Vantage Pro2

Weather-program
WeatherLink

Weather-server
DELL Optiplex 7020 Mini-Tower

Provider
Deluxe

Davis Vantage Pro2

WeatherLink

DELL Optiplex 7020 Mini-Tower

Deluxe

Weather Station EW0157 Visitors
Weather Station EW0157 Visitors